sensor_id;sensor_type;location;lat;lon;timestamp;pressure;altitude;pressure_sealevel;temperature;humidity
49216;BME280;45943;53.148;8.204;2022-11-20T00:02:18;101408.25;;;2.11;100.00
49216;BME280;45943;53.148;8.204;2022-11-20T00:04:44;101397.44;;;2.17;100.00
49216;BME280;45943;53.148;8.204;2022-11-20T00:07:10;101400.13;;;2.16;100.00
49216;BME280;45943;53.148;8.204;2022-11-20T00:09:36;101400.03;;;2.19;100.00
49216;BME280;45943;53.148;8.204;2022-11-20T00:12:02;101408.09;;;1.91;100.00
49216;BME280;45943;53.148;8.204;2022-11-20T00:14:28;101398.53;;;2.12;100.00
49216;BME280;45943;53.148;8.204;2022-11-20T00:16:54;101399.31;;;2.14;100.00
49216;BME280;45943;53.148;8.204;2022-11-20T00:19:20;101397.53;;;2.14;100.00
49216;BME280;45943;53.148;8.204;2022-11-20T00:21:46;101397.38;;;2.19;100.00
49216;BME280;45943;53.148;8.204;2022-11-20T00:24:12;101394.56;;;2.23;100.00
49216;BME280;45943;53.148;8.204;2022-11-20T00:26:38;101396.13;;;2.29;100.00
49216;BME280;45943;53.148;8.204;2022-11-20T00:29:04;101398.13;;;2.22;100.00
49216;BME280;45943;53.148;8.204;2022-11-20T00:31:30;101395.59;;;2.19;100.00
49216;BME280;45943;53.148;8.204;2022-11-20T00:33:58;101391.50;;;2.11;100.00
49216;BME280;45943;53.148;8.204;2022-11-20T00:36:25;101398.88;;;1.78;100.00
49216;BME280;45943;53.148;8.204;2022-11-20T00:38:53;101394.06;;;1.89;100.00
49216;BME280;45943;53.148;8.204;2022-11-20T00:41:20;101404.03;;;2.06;100.00
49216;BME280;45943;53.148;8.204;2022-11-20T00:43:46;101389.91;;;2.07;100.00
49216;BME280;45943;53.148;8.204;2022-11-20T00:46:14;101386.22;;;2.11;100.00
49216;BME280;45943;53.148;8.204;2022-11-20T00:48:42;101387.72;;;2.18;100.00
49216;BME280;45943;53.148;8.204;2022-11-20T00:51:09;101393.97;;;2.15;100.00
49216;BME280;45943;53.148;8.204;2022-11-20T00:53:38;101394.31;;;2.06;100.00
49216;BME280;45943;53.148;8.204;2022-11-20T00:56:05;101392.38;;;2.11;100.00
49216;BME280;45943;53.148;8.204;2022-11-20T00:58:36;101391.63;;;2.08;100.00
49216;BME280;45943;53.148;8.204;2022-11-20T01:03:35;101388.19;;;2.29;100.00
49216;BME280;45943;53.148;8.204;2022-11-20T01:06:04;101379.09;;;2.36;100.00
49216;BME280;45943;53.148;8.204;2022-11-20T01:08:41;101389.72;;;2.35;100.00
49216;BME280;45943;53.148;8.204;2022-11-20T01:11:08;101385.69;;;2.24;100.00
49216;BME280;45943;53.148;8.204;2022-11-20T01:13:43;101386.56;;;2.25;100.00
49216;BME280;45943;53.148;8.204;2022-11-20T01:16:12;101390.47;;;2.15;100.00
49216;BME280;45943;53.148;8.204;2022-11-20T01:18:44;101391.63;;;2.08;100.00
49216;BME280;45943;53.148;8.204;2022-11-20T01:21:12;101392.44;;;1.85;100.00
49216;BME280;45943;53.148;8.204;2022-11-20T01:23:41;101393.38;;;1.84;100.00
49216;BME280;45943;53.148;8.204;2022-11-20T01:26:17;101388.47;;;1.98;100.00
49216;BME280;45943;53.148;8.204;2022-11-20T01:28:45;101376.84;;;2.02;100.00
49216;BME280;45943;53.148;8.204;2022-11-20T01:33:38;101386.50;;;2.03;100.00
49216;BME280;45943;53.148;8.204;2022-11-20T01:36:06;101373.00;;;2.11;100.00
49216;BME280;45943;53.148;8.204;2022-11-20T01:38:32;101374.41;;;1.96;100.00
49216;BME280;45943;53.148;8.204;2022-11-20T01:40:59;101371.25;;;2.10;100.00
49216;BME280;45943;53.148;8.204;2022-11-20T01:43:25;101368.97;;;2.00;100.00
49216;BME280;45943;53.148;8.204;2022-11-20T01:51:28;101359.88;;;2.08;100.00
49216;BME280;45943;53.148;8.204;2022-11-20T01:54:00;101354.91;;;2.22;100.00
49216;BME280;45943;53.148;8.204;2022-11-20T01:56:31;101357.00;;;2.14;100.00
49216;BME280;45943;53.148;8.204;2022-11-20T01:59:02;101356.66;;;2.23;100.00
49216;BME280;45943;53.148;8.204;2022-11-20T02:01:33;101351.34;;;2.23;100.00
49216;BME280;45943;53.148;8.204;2022-11-20T02:03:59;101354.91;;;2.22;100.00
49216;BME280;45943;53.148;8.204;2022-11-20T02:06:27;101348.19;;;2.37;100.00
49216;BME280;45943;53.148;8.204;2022-11-20T02:08:57;101347.56;;;2.30;100.00
49216;BME280;45943;53.148;8.204;2022-11-20T02:11:23;101333.19;;;2.37;100.00
49216;BME280;45943;53.148;8.204;2022-11-20T02:13:49;101335.41;;;2.48;100.00
49216;BME280;45943;53.148;8.204;2022-11-20T02:18:59;101328.31;;;2.25;100.00
49216;BME280;45943;53.148;8.204;2022-11-20T02:21:39;101335.84;;;2.36;100.00
49216;BME280;45943;53.148;8.204;2022-11-20T02:26:38;101321.72;;;2.37;100.00
49216;BME280;45943;53.148;8.204;2022-11-20T02:29:08;101322.47;;;2.40;100.00
49216;BME280;45943;53.148;8.204;2022-11-20T02:31:38;101323.44;;;2.38;100.00
49216;BME280;45943;53.148;8.204;2022-11-20T02:34:07;101326.25;;;2.33;100.00
49216;BME280;45943;53.148;8.204;2022-11-20T02:36:34;101332.31;;;2.37;100.00
49216;BME280;45943;53.148;8.204;2022-11-20T02:39:03;101326.81;;;2.41;100.00
49216;BME280;45943;53.148;8.204;2022-11-20T02:41:31;101331.31;;;2.39;100.00
49216;BME280;45943;53.148;8.204;2022-11-20T02:43:59;101330.16;;;2.46;100.00
49216;BME280;45943;53.148;8.204;2022-11-20T02:46:25;101311.94;;;2.39;100.00
49216;BME280;45943;53.148;8.204;2022-11-20T02:48:51;101300.97;;;2.48;100.00
49216;BME280;45943;53.148;8.204;2022-11-20T02:51:17;101306.63;;;2.39;100.00
49216;BME280;45943;53.148;8.204;2022-11-20T02:53:43;101297.16;;;2.55;100.00
49216;BME280;45943;53.148;8.204;2022-11-20T02:56:09;101303.94;;;2.62;100.00
49216;BME280;45943;53.148;8.204;2022-11-20T02:58:35;101303.63;;;2.48;100.00
49216;BME280;45943;53.148;8.204;2022-11-20T03:01:01;101298.28;;;2.49;100.00
49216;BME280;45943;53.148;8.204;2022-11-20T03:03:27;101304.28;;;2.75;100.00
49216;BME280;45943;53.148;8.204;2022-11-20T03:05:53;101290.72;;;2.82;100.00
49216;BME280;45943;53.148;8.204;2022-11-20T03:08:19;101284.03;;;2.74;100.00
49216;BME280;45943;53.148;8.204;2022-11-20T03:10:45;101284.59;;;2.60;100.00
49216;BME280;45943;53.148;8.204;2022-11-20T03:13:11;101282.63;;;2.43;100.00
49216;BME280;45943;53.148;8.204;2022-11-20T03:15:37;101289.53;;;2.47;100.00
49216;BME280;45943;53.148;8.204;2022-11-20T03:18:03;101288.97;;;2.61;100.00
49216;BME280;45943;53.148;8.204;2022-11-20T03:20:29;101282.94;;;2.57;100.00
49216;BME280;45943;53.148;8.204;2022-11-20T03:22:55;101284.03;;;2.52;100.00
49216;BME280;45943;53.148;8.204;2022-11-20T03:25:21;101274.25;;;2.32;100.00
49216;BME280;45943;53.148;8.204;2022-11-20T03:27:47;101267.28;;;2.29;100.00
49216;BME280;45943;53.148;8.204;2022-11-20T03:30:13;101266.66;;;2.45;100.00
49216;BME280;45943;53.148;8.204;2022-11-20T03:32:40;101273.59;;;2.25;100.00
49216;BME280;45943;53.148;8.204;2022-11-20T03:35:06;101273.50;;;2.28;100.00
49216;BME280;45943;53.148;8.204;2022-11-20T03:37:32;101273.75;;;2.22;100.00
49216;BME280;45943;53.148;8.204;2022-11-20T03:39:58;101265.44;;;2.32;100.00
49216;BME280;45943;53.148;8.204;2022-11-20T03:42:24;101262.34;;;2.20;100.00
49216;BME280;45943;53.148;8.204;2022-11-20T03:45:09;101253.75;;;2.37;100.00
49216;BME280;45943;53.148;8.204;2022-11-20T03:47:35;101251.41;;;2.29;100.00
49216;BME280;45943;53.148;8.204;2022-11-20T03:50:01;101244.38;;;2.50;100.00
49216;BME280;45943;53.148;8.204;2022-11-20T03:52:27;101237.66;;;2.64;100.00
49216;BME280;45943;53.148;8.204;2022-11-20T03:54:53;101240.56;;;2.57;100.00
49216;BME280;45943;53.148;8.204;2022-11-20T03:57:19;101247.25;;;2.44;100.00
49216;BME280;45943;53.148;8.204;2022-11-20T03:59:45;101246.25;;;2.48;100.00
49216;BME280;45943;53.148;8.204;2022-11-20T04:02:11;101235.28;;;2.57;100.00
49216;BME280;45943;53.148;8.204;2022-11-20T04:04:37;101229.50;;;2.48;100.00
49216;BME280;45943;53.148;8.204;2022-11-20T04:07:03;101231.69;;;2.58;100.00
49216;BME280;45943;53.148;8.204;2022-11-20T04:09:29;101238.72;;;2.38;100.00
49216;BME280;45943;53.148;8.204;2022-11-20T04:11:55;101245.63;;;2.42;100.00
49216;BME280;45943;53.148;8.204;2022-11-20T04:14:21;101253.75;;;2.37;100.00
49216;BME280;45943;53.148;8.204;2022-11-20T04:16:47;101257.91;;;2.21;100.00
49216;BME280;45943;53.148;8.204;2022-11-20T04:19:14;101255.09;;;2.25;100.00
49216;BME280;45943;53.148;8.204;2022-11-20T04:21:41;101255.91;;;2.04;100.00
49216;BME280;45943;53.148;8.204;2022-11-20T04:24:08;101253.69;;;2.17;100.00
49216;BME280;45943;53.148;8.204;2022-11-20T04:26:36;101249.69;;;2.07;100.00
49216;BME280;45943;53.148;8.204;2022-11-20T04:29:02;101246.34;;;2.23;100.00
49216;BME280;45943;53.148;8.204;2022-11-20T04:31:29;101247.19;;;2.24;100.00
49216;BME280;45943;53.148;8.204;2022-11-20T04:34:01;101245.31;;;2.27;100.00
49216;BME280;45943;53.148;8.204;2022-11-20T04:36:28;101238.72;;;2.38;100.00
49216;BME280;45943;53.148;8.204;2022-11-20T04:38:56;101235.66;;;2.48;100.00
49216;BME280;45943;53.148;8.204;2022-11-20T04:41:24;101240.44;;;2.61;100.00
49216;BME280;45943;53.148;8.204;2022-11-20T04:43:52;101231.75;;;2.57;100.00
49216;BME280;45943;53.148;8.204;2022-11-20T04:46:25;101228.06;;;2.61;100.00
49216;BME280;45943;53.148;8.204;2022-11-20T04:48:52;101229.06;;;2.58;100.00
49216;BME280;45943;53.148;8.204;2022-11-20T04:51:18;101232.72;;;2.54;100.00
49216;BME280;45943;53.148;8.204;2022-11-20T04:53:44;101226.78;;;2.49;100.00
49216;BME280;45943;53.148;8.204;2022-11-20T04:56:11;101226.78;;;2.49;100.00
49216;BME280;45943;53.148;8.204;2022-11-20T04:58:38;101218.19;;;2.65;100.00
49216;BME280;45943;53.148;8.204;2022-11-20T05:01:14;101220.44;;;2.74;100.00
49216;BME280;45943;53.148;8.204;2022-11-20T05:03:42;101219.78;;;2.69;100.00
49216;BME280;45943;53.148;8.204;2022-11-20T05:06:10;101216.06;;;2.52;100.00
49216;BME280;45943;53.148;8.204;2022-11-20T05:08:37;101221.09;;;2.58;100.00
49216;BME280;45943;53.148;8.204;2022-11-20T05:11:04;101222.38;;;2.70;100.00
49216;BME280;45943;53.148;8.204;2022-11-20T05:13:32;101218.22;;;2.43;100.00
49216;BME280;45943;53.148;8.204;2022-11-20T05:16:05;101217.97;;;2.49;100.00
49216;BME280;45943;53.148;8.204;2022-11-20T05:18:36;101228.50;;;2.50;100.00
49216;BME280;45943;53.148;8.204;2022-11-20T05:21:02;101216.81;;;3.37;100.00
49216;BME280;45943;53.148;8.204;2022-11-20T05:23:30;101222.88;;;3.60;100.00
49216;BME280;45943;53.148;8.204;2022-11-20T05:25:57;101210.81;;;3.71;100.00
49216;BME280;45943;53.148;8.204;2022-11-20T05:28:23;101216.63;;;3.61;100.00
49216;BME280;45943;53.148;8.204;2022-11-20T05:30:50;101208.50;;;3.84;100.00
49216;BME280;45943;53.148;8.204;2022-11-20T05:33:16;101203.31;;;3.03;100.00
49216;BME280;45943;53.148;8.204;2022-11-20T05:35:43;101203.31;;;2.82;100.00
49216;BME280;45943;53.148;8.204;2022-11-20T05:38:09;101195.63;;;3.56;100.00
49216;BME280;45943;53.148;8.204;2022-11-20T05:40:35;101201.50;;;3.63;100.00
49216;BME280;45943;53.148;8.204;2022-11-20T05:43:01;101195.50;;;3.78;100.00
49216;BME280;45943;53.148;8.204;2022-11-20T05:45:27;101190.53;;;3.70;100.00
49216;BME280;45943;53.148;8.204;2022-11-20T05:47:56;101195.56;;;3.77;100.00
49216;BME280;45943;53.148;8.204;2022-11-20T05:50:23;101181.88;;;3.86;100.00
49216;BME280;45943;53.148;8.204;2022-11-20T05:52:49;101181.34;;;3.40;100.00
49216;BME280;45943;53.148;8.204;2022-11-20T05:55:15;101185.75;;;3.00;100.00
49216;BME280;45943;53.148;8.204;2022-11-20T05:57:41;101180.06;;;2.89;100.00
49216;BME280;45943;53.148;8.204;2022-11-20T06:00:07;101176.63;;;2.87;100.00
49216;BME280;45943;53.148;8.204;2022-11-20T06:02:36;101161.84;;;2.81;100.00
49216;BME280;45943;53.148;8.204;2022-11-20T06:05:02;101155.91;;;2.76;100.00
49216;BME280;45943;53.148;8.204;2022-11-20T06:07:28;101161.66;;;2.66;100.00
49216;BME280;45943;53.148;8.204;2022-11-20T06:09:54;101173.06;;;2.68;100.00
49216;BME280;45943;53.148;8.204;2022-11-20T06:12:20;101171.81;;;2.76;100.00
49216;BME280;45943;53.148;8.204;2022-11-20T06:14:46;101168.28;;;2.76;100.00
49216;BME280;45943;53.148;8.204;2022-11-20T06:17:13;101162.84;;;2.79;100.00
49216;BME280;45943;53.148;8.204;2022-11-20T06:19:39;101161.38;;;2.72;100.00
49216;BME280;45943;53.148;8.204;2022-11-20T06:22:05;101166.91;;;2.87;100.00
49216;BME280;45943;53.148;8.204;2022-11-20T06:24:31;101164.50;;;2.81;100.00
49216;BME280;45943;53.148;8.204;2022-11-20T06:26:57;101171.44;;;2.64;100.00
49216;BME280;45943;53.148;8.204;2022-11-20T06:29:22;101167.94;;;2.63;100.00
49216;BME280;45943;53.148;8.204;2022-11-20T06:31:48;101165.00;;;3.49;100.00
49216;BME280;45943;53.148;8.204;2022-11-20T06:34:14;101170.59;;;3.81;100.00
49216;BME280;45943;53.148;8.204;2022-11-20T06:36:40;101166.81;;;3.86;100.00
49216;BME280;45943;53.148;8.204;2022-11-20T06:39:06;101170.88;;;3.37;100.00
49216;BME280;45943;53.148;8.204;2022-11-20T06:41:32;101174.78;;;2.89;100.00
49216;BME280;45943;53.148;8.204;2022-11-20T06:43:58;101172.69;;;2.55;100.00
49216;BME280;45943;53.148;8.204;2022-11-20T06:46:24;101163.78;;;3.37;100.00
49216;BME280;45943;53.148;8.204;2022-11-20T06:48:50;101171.16;;;3.50;100.00
49216;BME280;45943;53.148;8.204;2022-11-20T06:51:16;101174.63;;;3.70;100.00
49216;BME280;45943;53.148;8.204;2022-11-20T06:53:43;101178.56;;;3.81;100.00
49216;BME280;45943;53.148;8.204;2022-11-20T06:56:09;101175.56;;;3.88;100.00
49216;BME280;45943;53.148;8.204;2022-11-20T06:58:35;101179.22;;;3.86;100.00
49216;BME280;45943;53.148;8.204;2022-11-20T07:01:03;101185.72;;;3.97;100.00
49216;BME280;45943;53.148;8.204;2022-11-20T07:03:34;101171.88;;;3.91;100.00
49216;BME280;45943;53.148;8.204;2022-11-20T07:06:01;101172.13;;;3.86;100.00
49216;BME280;45943;53.148;8.204;2022-11-20T07:08:28;101171.09;;;3.89;100.00
49216;BME280;45943;53.148;8.204;2022-11-20T07:10:57;101174.66;;;3.31;100.00
49216;BME280;45943;53.148;8.204;2022-11-20T07:13:24;101167.22;;;2.59;100.00
49216;BME280;45943;53.148;8.204;2022-11-20T07:15:51;101169.72;;;2.63;100.00
49216;BME280;45943;53.148;8.204;2022-11-20T07:18:17;101171.50;;;2.62;100.00
49216;BME280;45943;53.148;8.204;2022-11-20T07:20:43;101176.72;;;2.43;100.00
49216;BME280;45943;53.148;8.204;2022-11-20T07:23:09;101179.84;;;2.53;100.00
49216;BME280;45943;53.148;8.204;2022-11-20T07:25:35;101172.56;;;2.58;100.00
49216;BME280;45943;53.148;8.204;2022-11-20T07:28:01;101185.69;;;2.61;100.00
49216;BME280;45943;53.148;8.204;2022-11-20T07:30:27;101180.53;;;2.58;100.00
49216;BME280;45943;53.148;8.204;2022-11-20T07:32:54;101177.59;;;2.64;100.00
49216;BME280;45943;53.148;8.204;2022-11-20T07:35:21;101178.59;;;2.62;100.00
49216;BME280;45943;53.148;8.204;2022-11-20T07:37:48;101179.97;;;2.50;100.00
49216;BME280;45943;53.148;8.204;2022-11-20T07:40:15;101181.56;;;2.54;100.00
49216;BME280;45943;53.148;8.204;2022-11-20T07:42:52;101182.22;;;2.39;100.00
49216;BME280;45943;53.148;8.204;2022-11-20T07:45:20;101178.22;;;2.28;100.00
49216;BME280;45943;53.148;8.204;2022-11-20T07:47:47;101169.03;;;2.37;100.00
49216;BME280;45943;53.148;8.204;2022-11-20T07:50:14;101172.09;;;2.48;100.00
49216;BME280;45943;53.148;8.204;2022-11-20T07:52:40;101178.91;;;2.54;100.00
49216;BME280;45943;53.148;8.204;2022-11-20T07:55:07;101183.13;;;2.38;100.00
49216;BME280;45943;53.148;8.204;2022-11-20T07:57:33;101177.72;;;2.41;100.00
49216;BME280;45943;53.148;8.204;2022-11-20T08:00:00;101185.59;;;3.24;100.00
49216;BME280;45943;53.148;8.204;2022-11-20T08:02:26;101181.22;;;3.62;100.00
49216;BME280;45943;53.148;8.204;2022-11-20T08:04:52;101185.81;;;3.77;100.00
49216;BME280;45943;53.148;8.204;2022-11-20T08:07:18;101182.88;;;3.64;100.00
49216;BME280;45943;53.148;8.204;2022-11-20T08:09:44;101183.09;;;3.79;100.00
49216;BME280;45943;53.148;8.204;2022-11-20T08:12:16;101178.94;;;3.34;100.00
49216;BME280;45943;53.148;8.204;2022-11-20T08:15:03;101177.44;;;2.89;100.00
49216;BME280;45943;53.148;8.204;2022-11-20T08:17:30;101179.47;;;2.62;100.00
49216;BME280;45943;53.148;8.204;2022-11-20T08:19:56;101184.75;;;2.62;100.00
49216;BME280;45943;53.148;8.204;2022-11-20T08:22:22;101175.38;;;2.75;100.00
49216;BME280;45943;53.148;8.204;2022-11-20T08:24:48;101182.97;;;2.63;100.00
49216;BME280;45943;53.148;8.204;2022-11-20T08:27:14;101183.19;;;2.58;100.00
49216;BME280;45943;53.148;8.204;2022-11-20T08:29:40;101173.97;;;2.46;100.00
49216;BME280;45943;53.148;8.204;2022-11-20T08:32:06;101175.28;;;2.56;100.00
49216;BME280;45943;53.148;8.204;2022-11-20T08:34:32;101181.72;;;2.71;100.00
49216;BME280;45943;53.148;8.204;2022-11-20T08:36:58;101181.25;;;2.62;100.00
49216;BME280;45943;53.148;8.204;2022-11-20T08:39:24;101191.19;;;2.35;100.00
49216;BME280;45943;53.148;8.204;2022-11-20T08:41:50;101180.81;;;2.30;100.00
49216;BME280;45943;53.148;8.204;2022-11-20T08:44:16;101185.59;;;2.42;100.00
49216;BME280;45943;53.148;8.204;2022-11-20T08:46:42;101184.03;;;2.58;100.00
49216;BME280;45943;53.148;8.204;2022-11-20T08:49:11;101182.03;;;2.64;100.00
49216;BME280;45943;53.148;8.204;2022-11-20T08:51:39;101177.72;;;2.61;100.00
49216;BME280;45943;53.148;8.204;2022-11-20T08:54:06;101187.75;;;2.33;100.00
49216;BME280;45943;53.148;8.204;2022-11-20T08:56:32;101180.38;;;2.61;100.00
49216;BME280;45943;53.148;8.204;2022-11-20T08:58:59;101180.59;;;2.77;100.00
49216;BME280;45943;53.148;8.204;2022-11-20T09:01:25;101180.94;;;2.69;100.00
49216;BME280;45943;53.148;8.204;2022-11-20T09:03:52;101183.81;;;2.63;100.00
49216;BME280;45943;53.148;8.204;2022-11-20T09:06:18;101175.25;;;2.78;100.00
49216;BME280;45943;53.148;8.204;2022-11-20T09:08:44;101166.44;;;2.98;100.00
49216;BME280;45943;53.148;8.204;2022-11-20T09:11:10;101172.28;;;2.86;100.00
49216;BME280;45943;53.148;8.204;2022-11-20T09:13:36;101169.63;;;2.86;100.00
49216;BME280;45943;53.148;8.204;2022-11-20T09:16:04;101172.66;;;2.97;100.00
49216;BME280;45943;53.148;8.204;2022-11-20T09:18:32;101175.53;;;3.11;100.00
49216;BME280;45943;53.148;8.204;2022-11-20T09:20:59;101181.09;;;2.22;100.00
49216;BME280;45943;53.148;8.204;2022-11-20T09:23:26;101175.09;;;3.02;100.00
49216;BME280;45943;53.148;8.204;2022-11-20T09:25:53;101176.69;;;3.83;100.00
49216;BME280;45943;53.148;8.204;2022-11-20T09:28:21;101171.88;;;3.72;100.00
49216;BME280;45943;53.148;8.204;2022-11-20T09:30:47;101177.78;;;3.60;100.00
49216;BME280;45943;53.148;8.204;2022-11-20T09:33:13;101184.53;;;3.67;100.00
49216;BME280;45943;53.148;8.204;2022-11-20T09:35:39;101180.00;;;3.50;100.00
49216;BME280;45943;53.148;8.204;2022-11-20T09:38:08;101189.38;;;3.38;100.00
49216;BME280;45943;53.148;8.204;2022-11-20T09:40:38;101194.06;;;3.32;100.00
49216;BME280;45943;53.148;8.204;2022-11-20T09:43:19;101192.25;;;2.93;100.00
49216;BME280;45943;53.148;8.204;2022-11-20T09:46:19;101191.59;;;3.08;100.00
49216;BME280;45943;53.148;8.204;2022-11-20T09:51:46;101185.16;;;3.72;100.00
49216;BME280;45943;53.148;8.204;2022-11-20T09:54:16;101185.97;;;3.55;100.00
49216;BME280;45943;53.148;8.204;2022-11-20T09:56:45;101184.69;;;3.43;100.00
49216;BME280;45943;53.148;8.204;2022-11-20T09:59:23;101183.94;;;3.21;100.00
49216;BME280;45943;53.148;8.204;2022-11-20T10:01:57;101186.63;;;3.40;100.00
49216;BME280;45943;53.148;8.204;2022-11-20T10:04:26;101176.25;;;3.35;100.00
49216;BME280;45943;53.148;8.204;2022-11-20T10:07:02;101179.63;;;3.39;100.00
49216;BME280;45943;53.148;8.204;2022-11-20T10:09:39;101178.28;;;3.49;100.00
49216;BME280;45943;53.148;8.204;2022-11-20T10:17:54;101169.75;;;3.80;100.00
49216;BME280;45943;53.148;8.204;2022-11-20T10:20:33;101164.91;;;4.07;100.00
49216;BME280;45943;53.148;8.204;2022-11-20T10:25:51;101154.84;;;3.78;100.00
49216;BME280;45943;53.148;8.204;2022-11-20T10:28:42;101156.19;;;3.86;100.00
49216;BME280;45943;53.148;8.204;2022-11-20T10:31:29;101153.28;;;4.10;100.00
49216;BME280;45943;53.148;8.204;2022-11-20T10:34:01;101137.41;;;4.27;100.00
49216;BME280;45943;53.148;8.204;2022-11-20T10:36:39;101143.81;;;4.92;100.00
49216;BME280;45943;53.148;8.204;2022-11-20T10:39:31;101140.34;;;4.21;100.00
49216;BME280;45943;53.148;8.204;2022-11-20T10:42:03;101138.94;;;4.31;100.00
49216;BME280;45943;53.148;8.204;2022-11-20T10:44:37;101135.59;;;4.27;100.00
49216;BME280;45943;53.148;8.204;2022-11-20T10:47:27;101129.75;;;4.38;100.00
49216;BME280;45943;53.148;8.204;2022-11-20T10:49:55;101139.06;;;4.47;100.00
49216;BME280;45943;53.148;8.204;2022-11-20T10:58:13;101140.16;;;4.07;100.00
49216;BME280;45943;53.148;8.204;2022-11-20T11:00:45;101136.53;;;3.90;100.00
49216;BME280;45943;53.148;8.204;2022-11-20T11:03:20;101134.22;;;4.01;100.00
49216;BME280;45943;53.148;8.204;2022-11-20T11:05:53;101127.38;;;4.15;100.00
49216;BME280;45943;53.148;8.204;2022-11-20T11:08:25;101126.22;;;4.20;100.00
49216;BME280;45943;53.148;8.204;2022-11-20T11:10:59;101124.34;;;4.22;100.00
49216;BME280;45943;53.148;8.204;2022-11-20T11:13:29;101133.03;;;4.43;100.00
49216;BME280;45943;53.148;8.204;2022-11-20T11:15:55;101127.16;;;4.37;100.00
49216;BME280;45943;53.148;8.204;2022-11-20T11:18:29;101113.91;;;4.37;100.00
49216;BME280;45943;53.148;8.204;2022-11-20T11:20:58;101115.91;;;4.14;100.00
49216;BME280;45943;53.148;8.204;2022-11-20T11:23:33;101116.94;;;4.29;100.00
49216;BME280;45943;53.148;8.204;2022-11-20T11:26:17;101114.28;;;3.93;100.00
49216;BME280;45943;53.148;8.204;2022-11-20T11:28:55;101112.47;;;3.76;100.00
49216;BME280;45943;53.148;8.204;2022-11-20T11:31:28;101117.41;;;3.84;100.00
49216;BME280;45943;53.148;8.204;2022-11-20T11:36:38;101104.88;;;4.22;100.00
49216;BME280;45943;53.148;8.204;2022-11-20T11:39:05;101101.47;;;4.37;100.00
49216;BME280;45943;53.148;8.204;2022-11-20T11:41:36;101096.25;;;4.53;100.00
49216;BME280;45943;53.148;8.204;2022-11-20T11:44:19;101098.44;;;4.45;100.00
49216;BME280;45943;53.148;8.204;2022-11-20T11:47:08;101098.72;;;4.39;100.00
49216;BME280;45943;53.148;8.204;2022-11-20T11:49:43;101103.75;;;4.45;100.00
49216;BME280;45943;53.148;8.204;2022-11-20T11:52:16;101095.88;;;4.43;100.00
49216;BME280;45943;53.148;8.204;2022-11-20T12:00:16;101092.38;;;4.93;100.00
49216;BME280;45943;53.148;8.204;2022-11-20T12:16:00;101062.50;;;4.88;100.00
49216;BME280;45943;53.148;8.204;2022-11-20T12:18:28;101056.13;;;5.08;100.00
49216;BME280;45943;53.148;8.204;2022-11-20T12:27:01;101055.53;;;5.03;100.00
49216;BME280;45943;53.148;8.204;2022-11-20T12:29:08;101052.50;;;4.93;100.00
49216;BME280;45943;53.148;8.204;2022-11-20T12:34:32;101051.41;;;4.80;100.00
49216;BME280;45943;53.148;8.204;2022-11-20T12:37:15;101045.41;;;4.76;100.00
49216;BME280;45943;53.148;8.204;2022-11-20T12:43:06;101041.06;;;4.58;100.00
49216;BME280;45943;53.148;8.204;2022-11-20T12:46:08;101036.03;;;4.69;100.00
49216;BME280;45943;53.148;8.204;2022-11-20T12:59:24;101020.91;;;5.52;100.00
49216;BME280;45943;53.148;8.204;2022-11-20T13:02:09;101026.81;;;5.25;100.00
49216;BME280;45943;53.148;8.204;2022-11-20T13:07:46;101026.06;;;4.90;100.00
49216;BME280;45943;53.148;8.204;2022-11-20T13:10:21;101025.13;;;4.58;100.00
49216;BME280;45943;53.148;8.204;2022-11-20T13:12:56;101025.75;;;4.63;100.00
49216;BME280;45943;53.148;8.204;2022-11-20T13:18:28;101026.69;;;4.95;100.00
49216;BME280;45943;53.148;8.204;2022-11-20T13:21:13;101019.66;;;4.94;100.00
49216;BME280;45943;53.148;8.204;2022-11-20T13:23:43;101022.19;;;5.44;100.00
49216;BME280;45943;53.148;8.204;2022-11-20T13:28:41;101020.41;;;6.65;100.00
49216;BME280;45943;53.148;8.204;2022-11-20T13:31:23;101019.84;;;6.74;100.00
49216;BME280;45943;53.148;8.204;2022-11-20T13:34:12;101003.50;;;8.55;100.00
49216;BME280;45943;53.148;8.204;2022-11-20T13:36:53;101002.84;;;10.11;76.48
49216;BME280;45943;53.148;8.204;2022-11-20T13:39:28;100998.38;;;11.36;66.36
49216;BME280;45943;53.148;8.204;2022-11-20T13:42:00;100999.13;;;11.92;61.29
49216;BME280;45943;53.148;8.204;2022-11-20T13:47:03;100992.22;;;11.56;55.61
49216;BME280;45943;53.148;8.204;2022-11-20T13:49:44;101000.88;;;10.83;56.28
49216;BME280;45943;53.148;8.204;2022-11-20T13:57:55;100986.19;;;8.35;65.66
49216;BME280;45943;53.148;8.204;2022-11-20T14:00:33;100982.59;;;7.96;70.97
49216;BME280;45943;53.148;8.204;2022-11-20T14:03:18;100983.34;;;7.98;70.71
49216;BME280;45943;53.148;8.204;2022-11-20T14:05:50;100980.53;;;7.87;72.69
49216;BME280;45943;53.148;8.204;2022-11-20T14:08:23;100976.94;;;7.47;81.89
49216;BME280;45943;53.148;8.204;2022-11-20T14:13:38;100986.59;;;6.94;88.25
49216;BME280;45943;53.148;8.204;2022-11-20T14:16:04;100981.56;;;6.89;91.67
49216;BME280;45943;53.148;8.204;2022-11-20T14:18:30;100977.50;;;6.70;92.36
49216;BME280;45943;53.148;8.204;2022-11-20T14:20:56;100980.13;;;6.41;89.65
49216;BME280;45943;53.148;8.204;2022-11-20T14:23:27;100967.97;;;5.93;89.05
49216;BME280;45943;53.148;8.204;2022-11-20T14:25:54;100966.88;;;5.50;91.23
49216;BME280;45943;53.148;8.204;2022-11-20T14:28:28;100966.66;;;5.38;95.20
49216;BME280;45943;53.148;8.204;2022-11-20T14:30:55;100962.88;;;5.27;100.00
49216;BME280;45943;53.148;8.204;2022-11-20T14:33:22;100963.50;;;5.32;100.00
49216;BME280;45943;53.148;8.204;2022-11-20T14:35:51;100960.84;;;5.32;100.00
49216;BME280;45943;53.148;8.204;2022-11-20T14:38:24;100959.78;;;5.18;96.03